首页
METAR-TAF:

METAR-TAF

机场 :

莫比尔, 阿拉巴马州, 美国

纬度: 30-36-50N, 经度: 088-03-48W, 海拔: 7米

当前天气观测

该预报发布于25分钟前的04:53 UTC
风速6节,风向北转西北
温度 0°C
湿度 74%
气压 1031 hPa
能見度: 16.1公里
天空无云

METAR: KBFM 220453Z AUTO 34006KT 10SM CLR 00/M04 A3045 RMK AO2 SLP310 T00001044

时间: 23:18 (05:18 UTC)

预报

该预报发布于5小时和57分钟前的23:21 UTC
预报有效从22日的 00点(UTC)到 22日的 24点(UTC)
风速10节,风向
能見度: 10公里
天空无云
从 22日的 0500点(UTC)
风速5节,风向北转东北
能見度: 10公里
少量云层高于25000英尺
从 22日的 1600点(UTC)
风速7节,风向东转东北
能見度: 10公里
多云层高于25000英尺

TAF: KBFM 212321Z 2200/2224 36010KT P6SM SKC FM220500 02005KT P6SM FEW250 FM221600 07007KT P6SM BKN250

超过4000个机场的气象观测和天气预报(METAR&TAF报告)。

可查询的气象台以黄色和红色小点在地图上表示。

将鼠标移到小点上方,可查看气象台名称。

然后点击查看天气观测和预报。

如需切换地图:点击带黑十字的绿色按钮放大地图;点击带横线的绿色按钮缩小地图;或者点击绿色箭头查看邻近地区的地图。


METAR-TAF: